createdAt,value
2022-12-12T00:02:02.563Z,17.58
2022-12-12T00:04:28.877Z,13.43
2022-12-12T00:06:55.255Z,9.43
2022-12-12T00:09:21.575Z,7.03
2022-12-12T00:11:48.031Z,12.30
2022-12-12T00:14:14.398Z,12.57
2022-12-12T00:16:40.869Z,11.25
2022-12-12T00:19:07.207Z,10.80
2022-12-12T00:21:33.542Z,8.23
2022-12-12T00:23:59.959Z,7.35
2022-12-12T00:26:27.860Z,8.00
2022-12-12T00:28:54.239Z,6.78
2022-12-12T00:31:20.720Z,5.18
2022-12-12T00:33:48.919Z,2.92
2022-12-12T00:36:15.694Z,5.80
2022-12-12T00:38:42.328Z,5.22
2022-12-12T00:41:09.118Z,4.70
2022-12-12T00:43:35.526Z,6.18
2022-12-12T00:46:02.178Z,4.55
2022-12-12T00:48:28.947Z,4.10
2022-12-12T00:50:56.352Z,2.58
2022-12-12T00:53:22.834Z,1.30
2022-12-12T00:55:58.259Z,1.17
2022-12-12T00:58:25.119Z,0.93
2022-12-12T01:00:51.513Z,1.50
2022-12-12T01:03:18.080Z,1.42
2022-12-12T01:05:44.556Z,1.88
2022-12-12T01:08:10.994Z,2.03
2022-12-12T01:10:37.788Z,5.18
2022-12-12T01:13:04.340Z,5.18
2022-12-12T01:15:30.909Z,3.17
2022-12-12T01:17:57.305Z,3.00
2022-12-12T01:20:27.389Z,5.82
2022-12-12T01:22:53.771Z,3.10
2022-12-12T01:25:20.154Z,2.67
2022-12-12T01:27:46.673Z,2.35
2022-12-12T01:30:15.935Z,15.18
2022-12-12T01:32:42.236Z,14.07
2022-12-12T01:35:08.928Z,14.48
2022-12-12T01:37:35.710Z,14.40
2022-12-12T01:40:02.196Z,11.20
2022-12-12T01:42:29.007Z,10.23
2022-12-12T01:44:55.383Z,7.72
2022-12-12T01:47:22.837Z,4.30
2022-12-12T01:49:51.163Z,4.85
2022-12-12T01:52:18.930Z,4.85
2022-12-12T01:54:46.993Z,2.80
2022-12-12T01:57:14.920Z,2.63
2022-12-12T01:59:41.410Z,3.20
2022-12-12T02:02:08.740Z,2.72
2022-12-12T02:04:35.287Z,3.13
2022-12-12T02:07:01.833Z,2.13
2022-12-12T02:09:28.295Z,3.25
2022-12-12T02:11:57.212Z,5.20
2022-12-12T02:14:43.767Z,4.68
2022-12-12T02:17:22.007Z,6.00
2022-12-12T02:19:57.411Z,7.78
2022-12-12T02:22:33.598Z,8.55
2022-12-12T02:24:59.907Z,4.72
2022-12-12T02:27:26.286Z,9.65
2022-12-12T02:30:11.518Z,9.85
2022-12-12T02:32:37.862Z,6.47
2022-12-12T02:35:07.251Z,12.38
2022-12-12T02:37:36.543Z,7.32
2022-12-12T02:40:18.251Z,8.10
2022-12-12T02:43:09.353Z,5.47
2022-12-12T02:45:40.843Z,3.22
2022-12-12T02:48:19.252Z,5.72
2022-12-12T02:50:47.403Z,5.43
2022-12-12T02:53:16.953Z,3.00
2022-12-12T02:55:43.360Z,2.65
2022-12-12T02:58:09.709Z,3.22
2022-12-12T03:00:45.306Z,2.95
2022-12-12T03:03:45.125Z,3.85
2022-12-12T03:06:44.184Z,4.47
2022-12-12T03:09:21.478Z,2.78
2022-12-12T03:11:54.885Z,5.03
2022-12-12T03:14:24.867Z,6.63
2022-12-12T03:16:58.624Z,5.15
2022-12-12T03:19:40.409Z,9.18
2022-12-12T03:22:23.978Z,6.75
2022-12-12T03:24:50.333Z,4.57
2022-12-12T03:27:31.619Z,4.45
2022-12-12T03:30:03.350Z,3.40
2022-12-12T03:32:33.469Z,6.47
2022-12-12T03:35:00.776Z,6.80
2022-12-12T03:37:30.412Z,6.82
2022-12-12T03:39:59.323Z,7.00
2022-12-12T03:42:28.667Z,4.88
2022-12-12T03:45:04.339Z,3.05
2022-12-12T03:47:37.139Z,2.00
2022-12-12T03:50:10.038Z,2.85
2022-12-12T03:52:48.554Z,1.33
2022-12-12T03:55:24.401Z,1.77
2022-12-12T03:58:03.048Z,1.58
2022-12-12T04:00:31.157Z,2.15
2022-12-12T04:03:16.230Z,2.10
2022-12-12T04:06:16.225Z,2.40
2022-12-12T04:09:02.660Z,3.25
2022-12-12T04:11:49.764Z,1.65
2022-12-12T04:14:34.691Z,1.38
2022-12-12T04:17:03.472Z,1.08
2022-12-12T04:19:53.726Z,0.80
2022-12-12T04:22:40.861Z,0.85
2022-12-12T04:25:10.731Z,1.05
2022-12-12T04:27:40.941Z,1.42
2022-12-12T04:30:08.932Z,1.35
2022-12-12T04:32:50.398Z,1.67
2022-12-12T04:35:22.284Z,1.45
2022-12-12T04:37:50.996Z,0.95
2022-12-12T04:40:20.289Z,1.25
2022-12-12T04:42:50.732Z,0.63
2022-12-12T04:45:20.375Z,0.60
2022-12-12T04:47:48.046Z,0.73
2022-12-12T04:50:15.981Z,1.02
2022-12-12T04:52:43.315Z,1.33
2022-12-12T04:55:15.286Z,0.85
2022-12-12T04:57:43.865Z,2.55
2022-12-12T05:00:11.155Z,2.45
2022-12-12T05:02:46.693Z,1.52
2022-12-12T05:05:15.102Z,0.85
2022-12-12T05:07:43.822Z,0.98
2022-12-12T05:10:14.474Z,0.80
2022-12-12T05:12:51.004Z,0.60
2022-12-12T05:15:18.558Z,0.45
2022-12-12T05:17:46.286Z,0.57
2022-12-12T05:20:13.055Z,1.60
2022-12-12T05:22:39.581Z,2.08
2022-12-12T05:25:06.320Z,0.68
2022-12-12T05:27:32.878Z,0.52
2022-12-12T05:29:59.248Z,0.60
2022-12-12T05:32:25.647Z,0.57
2022-12-12T05:34:51.931Z,3.17
2022-12-12T05:37:18.306Z,4.43
2022-12-12T05:39:44.693Z,4.80
2022-12-12T05:42:10.991Z,4.95
2022-12-12T05:44:37.298Z,12.68
2022-12-12T05:47:03.588Z,15.00
2022-12-12T05:49:29.865Z,9.45
2022-12-12T05:51:56.171Z,9.25
2022-12-12T05:54:22.530Z,11.20
2022-12-12T05:56:49.017Z,8.77
2022-12-12T05:59:15.397Z,8.18
2022-12-12T06:01:42.082Z,10.18
2022-12-12T06:04:08.587Z,12.55
2022-12-12T06:06:35.036Z,6.82
2022-12-12T06:09:01.441Z,8.52
2022-12-12T06:11:27.783Z,8.05
2022-12-12T06:13:54.147Z,6.60
2022-12-12T06:16:20.711Z,3.78
2022-12-12T06:18:50.979Z,4.15
2022-12-12T06:21:17.428Z,2.78
2022-12-12T06:23:43.788Z,2.80
2022-12-12T06:26:11.346Z,2.97
2022-12-12T06:28:38.217Z,2.80
2022-12-12T06:31:11.093Z,2.22
2022-12-12T06:33:38.525Z,2.17
2022-12-12T06:36:11.663Z,1.08
2022-12-12T06:38:38.481Z,1.90
2022-12-12T06:41:08.479Z,1.98
2022-12-12T06:43:35.402Z,1.10
2022-12-12T06:46:02.726Z,0.45
2022-12-12T06:48:30.123Z,0.60
2022-12-12T06:50:56.463Z,0.68
2022-12-12T06:53:22.815Z,0.40
2022-12-12T06:55:49.142Z,0.75
2022-12-12T06:58:15.630Z,0.50
2022-12-12T07:00:41.985Z,0.40
2022-12-12T07:03:09.450Z,1.05
2022-12-12T07:05:36.016Z,1.23
2022-12-12T07:08:02.971Z,1.77
2022-12-12T07:10:30.295Z,2.05
2022-12-12T07:12:57.701Z,1.65
2022-12-12T07:15:24.180Z,2.15
2022-12-12T07:17:53.791Z,1.65
2022-12-12T07:20:20.580Z,2.42
2022-12-12T07:22:46.862Z,1.90
2022-12-12T07:25:13.318Z,0.80
2022-12-12T07:27:39.819Z,1.38
2022-12-12T07:30:06.337Z,1.17
2022-12-12T07:32:32.670Z,1.70
2022-12-12T07:34:59.008Z,1.45
2022-12-12T07:37:25.287Z,0.95
2022-12-12T07:39:51.661Z,1.45
2022-12-12T07:42:18.094Z,1.42
2022-12-12T07:44:44.640Z,1.25
2022-12-12T07:47:11.476Z,1.83
2022-12-12T07:49:37.869Z,1.25
2022-12-12T07:52:04.392Z,0.90
2022-12-12T07:54:30.713Z,1.45
2022-12-12T07:56:58.633Z,1.33
2022-12-12T07:59:24.972Z,1.60
2022-12-12T08:01:51.389Z,0.95
2022-12-12T08:04:17.801Z,1.77
2022-12-12T08:06:44.128Z,1.42
2022-12-12T08:09:10.507Z,0.68
2022-12-12T08:11:38.161Z,0.60
2022-12-12T08:14:12.697Z,0.60
2022-12-12T08:16:39.520Z,0.50
2022-12-12T08:19:05.841Z,0.80
2022-12-12T08:21:32.355Z,0.57
2022-12-12T08:23:59.478Z,0.95
2022-12-12T08:26:26.335Z,2.67
2022-12-12T08:28:53.044Z,2.03
2022-12-12T08:31:20.515Z,1.63
2022-12-12T08:33:47.475Z,1.00
2022-12-12T08:36:14.941Z,4.82
2022-12-12T08:38:41.723Z,5.93
2022-12-12T08:41:08.449Z,10.20
2022-12-12T08:43:34.739Z,9.60
2022-12-12T08:46:01.700Z,12.88
2022-12-12T08:48:28.542Z,6.72
2022-12-12T08:50:54.841Z,5.55
2022-12-12T08:53:21.198Z,4.72
2022-12-12T08:55:47.495Z,4.22
2022-12-12T08:58:13.988Z,3.88
2022-12-12T09:00:40.434Z,4.95
2022-12-12T09:03:06.819Z,12.23
2022-12-12T09:05:33.381Z,5.63
2022-12-12T09:08:00.038Z,4.65
2022-12-12T09:10:27.679Z,3.17
2022-12-12T09:12:54.503Z,2.50
2022-12-12T09:15:21.101Z,2.53
2022-12-12T09:17:47.379Z,2.65
2022-12-12T09:20:13.673Z,3.05
2022-12-12T09:22:40.116Z,9.77
2022-12-12T09:25:06.565Z,8.13
2022-12-12T09:27:32.866Z,6.82
2022-12-12T09:29:59.410Z,11.05
2022-12-12T09:32:26.144Z,8.10
2022-12-12T09:34:52.846Z,6.18
2022-12-12T09:37:19.497Z,5.63
2022-12-12T09:39:45.825Z,8.57
2022-12-12T09:42:18.921Z,6.68
2022-12-12T09:44:45.401Z,7.43
2022-12-12T09:47:14.302Z,4.80
2022-12-12T09:49:45.171Z,4.07
2022-12-12T09:52:16.583Z,4.35
2022-12-12T09:54:43.480Z,8.82
2022-12-12T09:57:21.484Z,9.43
2022-12-12T10:00:10.555Z,11.57
2022-12-12T10:02:57.165Z,10.18
2022-12-12T10:05:29.525Z,9.25
2022-12-12T10:08:14.254Z,10.68
2022-12-12T10:10:42.335Z,9.63
2022-12-12T10:13:14.758Z,6.93
2022-12-12T10:15:43.037Z,7.80
2022-12-12T10:18:29.672Z,9.02
2022-12-12T10:20:57.720Z,7.30
2022-12-12T10:23:30.466Z,4.85
2022-12-12T10:25:58.642Z,5.22
2022-12-12T10:28:26.565Z,8.15
2022-12-12T10:31:02.177Z,5.38
2022-12-12T10:33:33.320Z,4.30
2022-12-12T10:36:19.960Z,4.33
2022-12-12T10:38:58.636Z,1.88
2022-12-12T10:41:31.078Z,6.50
2022-12-12T10:44:13.623Z,5.00
2022-12-12T10:46:44.174Z,8.48
2022-12-12T10:49:15.301Z,5.95
2022-12-12T10:51:42.359Z,6.60
2022-12-12T10:54:18.127Z,8.07
2022-12-12T10:57:07.787Z,4.15
2022-12-12T10:59:45.272Z,4.30
2022-12-12T11:02:20.887Z,4.90
2022-12-12T11:04:47.365Z,3.35
2022-12-12T11:07:19.439Z,3.50
2022-12-12T11:12:15.963Z,3.10
2022-12-12T11:14:51.999Z,4.88
2022-12-12T11:17:22.097Z,5.75
2022-12-12T11:19:48.824Z,9.15
2022-12-12T11:22:15.741Z,10.02
2022-12-12T11:24:44.280Z,7.72
2022-12-12T11:27:18.899Z,10.20
2022-12-12T11:29:45.304Z,10.40
2022-12-12T11:32:13.134Z,12.57
2022-12-12T11:34:40.245Z,11.70
2022-12-12T11:37:06.766Z,12.30
2022-12-12T11:39:37.555Z,12.57
2022-12-12T11:42:05.701Z,17.67
2022-12-12T11:44:35.844Z,10.48
2022-12-12T11:47:20.964Z,10.68
2022-12-12T11:49:48.504Z,15.18
2022-12-12T11:52:17.807Z,15.20
2022-12-12T11:54:44.172Z,12.73
2022-12-12T11:57:18.267Z,14.27
2022-12-12T12:00:03.573Z,18.58
2022-12-12T12:02:42.094Z,16.00
2022-12-12T12:05:08.421Z,16.88
2022-12-12T12:07:53.552Z,15.02
2022-12-12T12:10:29.139Z,17.65
2022-12-12T12:13:04.788Z,14.80
2022-12-12T12:15:39.887Z,15.35
2022-12-12T12:18:17.051Z,14.30
2022-12-12T12:20:55.556Z,19.30
2022-12-12T12:23:47.481Z,15.40
2022-12-12T12:26:25.399Z,14.80
2022-12-12T12:29:10.629Z,13.43
2022-12-12T12:31:45.968Z,19.83
2022-12-12T12:34:24.886Z,20.95
2022-12-12T12:36:51.229Z,16.35
2022-12-12T12:39:17.515Z,13.32
2022-12-12T12:41:55.411Z,17.02
2022-12-12T12:44:27.903Z,13.23
2022-12-12T12:46:57.053Z,19.90
2022-12-12T12:49:29.009Z,16.85
2022-12-12T12:52:27.815Z,17.33
2022-12-12T12:54:56.682Z,14.82
2022-12-12T12:57:27.939Z,17.70
2022-12-12T12:59:57.793Z,17.63
2022-12-12T13:02:27.152Z,15.15
2022-12-12T13:04:59.019Z,11.13
2022-12-12T13:07:51.549Z,12.48
2022-12-12T13:10:22.493Z,13.43
2022-12-12T13:13:01.295Z,14.88
2022-12-12T13:15:33.503Z,23.45
2022-12-12T13:18:16.264Z,14.98
2022-12-12T13:21:05.868Z,15.90
2022-12-12T13:23:47.471Z,17.60
2022-12-12T13:26:21.651Z,19.58
2022-12-12T13:28:51.153Z,17.58
2022-12-12T13:31:26.738Z,18.77
2022-12-12T13:33:55.676Z,19.23
2022-12-12T13:36:27.571Z,22.45
2022-12-12T13:38:57.580Z,21.30
2022-12-12T13:41:23.986Z,23.67
2022-12-12T13:43:56.287Z,16.42
2022-12-12T13:46:28.502Z,19.98
2022-12-12T13:48:54.916Z,19.67
2022-12-12T13:51:27.650Z,19.25
2022-12-12T13:54:12.074Z,17.20
2022-12-12T13:56:44.165Z,16.17
2022-12-12T13:59:36.570Z,13.13
2022-12-12T14:04:33.248Z,19.20
2022-12-12T14:06:59.669Z,18.63
2022-12-12T14:09:46.654Z,17.50
2022-12-12T14:12:19.427Z,24.23
2022-12-12T14:15:12.959Z,20.08
2022-12-12T14:17:42.585Z,30.52
2022-12-12T14:20:23.237Z,25.15
2022-12-12T14:22:49.640Z,17.40
2022-12-12T14:25:17.182Z,22.38
2022-12-12T14:27:49.820Z,22.80
2022-12-12T14:30:20.052Z,20.15
2022-12-12T14:33:18.890Z,16.25
2022-12-12T14:35:56.942Z,19.15
2022-12-12T14:38:35.713Z,18.08
2022-12-12T14:41:03.880Z,15.18
2022-12-12T14:43:33.899Z,16.48
2022-12-12T14:46:00.992Z,13.77
2022-12-12T14:48:34.206Z,14.63
2022-12-12T14:51:09.267Z,15.90
2022-12-12T14:53:38.563Z,17.42
2022-12-12T14:56:09.870Z,16.33
2022-12-12T14:58:44.711Z,15.23
2022-12-12T15:01:11.497Z,11.90
2022-12-12T15:03:39.714Z,11.38
2022-12-12T15:06:19.367Z,9.60
2022-12-12T15:08:45.956Z,9.73
2022-12-12T15:11:16.680Z,10.13
2022-12-12T15:14:09.293Z,16.52
2022-12-12T15:16:40.724Z,10.13
2022-12-12T15:19:15.100Z,9.30
2022-12-12T15:21:43.152Z,12.73
2022-12-12T15:24:23.913Z,13.80
2022-12-12T15:26:52.595Z,12.90
2022-12-12T15:29:20.531Z,8.57
2022-12-12T15:31:48.181Z,6.72
2022-12-12T15:34:33.412Z,5.53
2022-12-12T15:37:28.995Z,7.80
2022-12-12T15:40:12.884Z,5.00
2022-12-12T15:42:41.761Z,3.30
2022-12-12T15:45:13.554Z,3.60
2022-12-12T15:47:39.906Z,1.67
2022-12-12T15:50:09.492Z,2.17
2022-12-12T15:52:36.038Z,2.45
2022-12-12T15:55:04.084Z,2.03
2022-12-12T15:57:32.762Z,2.33
2022-12-12T16:00:01.029Z,1.00
2022-12-12T16:02:28.921Z,1.17
2022-12-12T16:04:57.178Z,1.77
2022-12-12T16:07:23.960Z,1.23
2022-12-12T16:10:00.658Z,1.80
2022-12-12T16:12:45.880Z,1.88
2022-12-12T16:15:19.156Z,6.28
2022-12-12T16:18:02.444Z,3.05
2022-12-12T16:20:30.771Z,4.05
2022-12-12T16:23:08.676Z,7.13
2022-12-12T16:25:35.027Z,5.93
2022-12-12T16:28:07.201Z,3.47
2022-12-12T16:30:33.524Z,4.00
2022-12-12T16:33:10.392Z,4.82
2022-12-12T16:35:36.723Z,6.32
2022-12-12T16:38:12.541Z,5.47
2022-12-12T16:40:39.023Z,5.63
2022-12-12T16:43:11.010Z,2.15
2022-12-12T16:45:38.074Z,2.75
2022-12-12T16:48:18.494Z,4.05
2022-12-12T16:50:45.029Z,3.85
2022-12-12T16:53:11.735Z,2.72
2022-12-12T16:55:40.691Z,4.07
2022-12-12T16:58:07.441Z,3.65
2022-12-12T17:00:34.080Z,4.05
2022-12-12T17:03:00.460Z,2.33
2022-12-12T17:05:27.507Z,2.03
2022-12-12T17:07:54.180Z,2.65
2022-12-12T17:10:21.392Z,1.73
2022-12-12T17:12:47.818Z,1.88
2022-12-12T17:15:16.826Z,2.00
2022-12-12T17:17:43.209Z,2.28
2022-12-12T17:20:09.704Z,2.65
2022-12-12T17:22:36.039Z,3.00
2022-12-12T17:25:02.443Z,3.22
2022-12-12T17:27:29.941Z,2.08
2022-12-12T17:29:56.238Z,2.03
2022-12-12T17:32:24.546Z,1.02
2022-12-12T17:34:51.281Z,2.60
2022-12-12T17:37:17.596Z,2.25
2022-12-12T17:39:44.026Z,2.38
2022-12-12T17:42:10.383Z,0.65
2022-12-12T17:44:36.663Z,1.08
2022-12-12T17:47:03.027Z,4.85
2022-12-12T17:49:29.428Z,5.20
2022-12-12T17:51:55.715Z,4.32
2022-12-12T17:54:22.067Z,2.75
2022-12-12T17:56:48.452Z,2.75
2022-12-12T17:59:14.788Z,3.78
2022-12-12T18:01:41.321Z,4.13
2022-12-12T18:04:08.920Z,3.22
2022-12-12T18:06:35.458Z,6.50
2022-12-12T18:09:02.269Z,3.63
2022-12-12T18:11:31.256Z,7.00
2022-12-12T18:13:58.547Z,6.40
2022-12-12T18:16:24.989Z,6.38
2022-12-12T18:18:51.890Z,2.97
2022-12-12T18:21:51.304Z,4.82
2022-12-12T18:24:07.289Z,3.13
2022-12-12T18:26:33.776Z,6.72
2022-12-12T18:29:01.753Z,16.35
2022-12-12T18:31:29.095Z,8.60
2022-12-12T18:33:55.979Z,8.13
2022-12-12T18:36:23.158Z,6.10
2022-12-12T18:38:50.027Z,5.28
2022-12-12T18:41:16.639Z,8.65
2022-12-12T18:43:43.074Z,6.22
2022-12-12T18:46:11.198Z,17.88
2022-12-12T18:48:39.292Z,13.15
2022-12-12T18:51:06.378Z,9.63
2022-12-12T18:53:32.968Z,8.15
2022-12-12T18:55:59.330Z,4.38
2022-12-12T18:58:26.196Z,3.40
2022-12-12T19:00:52.736Z,4.35
2022-12-12T19:03:19.081Z,2.72
2022-12-12T19:05:45.455Z,2.17
2022-12-12T19:08:11.908Z,1.83
2022-12-12T19:10:38.405Z,2.30
2022-12-12T19:13:04.813Z,2.05
2022-12-12T19:15:31.371Z,1.20
2022-12-12T19:17:57.693Z,1.38
2022-12-12T19:20:24.560Z,2.13
2022-12-12T19:22:51.058Z,1.33
2022-12-12T19:25:17.994Z,3.58
2022-12-12T19:27:44.387Z,4.40
2022-12-12T19:30:12.274Z,3.95
2022-12-12T19:32:38.796Z,5.97
2022-12-12T19:35:05.443Z,3.03
2022-12-12T19:37:31.870Z,3.22
2022-12-12T19:39:58.178Z,4.28
2022-12-12T19:42:24.556Z,3.00
2022-12-12T19:44:50.992Z,3.70
2022-12-12T19:47:18.765Z,3.75
2022-12-12T19:49:45.065Z,3.58
2022-12-12T19:52:14.242Z,3.55
2022-12-12T19:54:40.957Z,3.17
2022-12-12T19:57:07.283Z,3.83
2022-12-12T19:59:33.605Z,4.10
2022-12-12T20:02:00.970Z,6.40
2022-12-12T20:04:29.602Z,8.65
2022-12-12T20:06:56.012Z,10.38
2022-12-12T20:09:23.991Z,11.73
2022-12-12T20:11:50.592Z,9.43
2022-12-12T20:14:21.067Z,9.48
2022-12-12T20:16:47.724Z,7.07
2022-12-12T20:19:14.405Z,11.15
2022-12-12T20:22:00.186Z,10.38
2022-12-12T20:24:28.767Z,12.32
2022-12-12T20:26:55.975Z,9.52
2022-12-12T20:29:23.053Z,10.63
2022-12-12T20:31:49.775Z,9.38
2022-12-12T20:34:17.211Z,8.65
2022-12-12T20:36:46.604Z,7.32
2022-12-12T20:39:16.860Z,5.88
2022-12-12T20:41:44.764Z,6.18
2022-12-12T20:44:12.339Z,8.43
2022-12-12T20:46:39.970Z,9.93
2022-12-12T20:49:07.335Z,11.05
2022-12-12T20:54:22.258Z,10.52
2022-12-12T20:56:49.045Z,6.97
2022-12-12T20:59:15.373Z,5.70
2022-12-12T21:01:41.737Z,4.50
2022-12-12T21:04:09.410Z,8.20
2022-12-12T21:06:40.242Z,11.93
2022-12-12T21:09:08.640Z,11.48
2022-12-12T21:11:35.525Z,7.88
2022-12-12T21:14:02.070Z,5.28
2022-12-12T21:16:31.076Z,6.65
2022-12-12T21:18:59.823Z,7.05
2022-12-12T21:21:26.596Z,3.85
2022-12-12T21:23:53.401Z,4.43
2022-12-12T21:26:26.749Z,2.08
2022-12-12T21:28:55.503Z,2.65
2022-12-12T21:31:24.500Z,2.15
2022-12-12T21:33:51.190Z,1.90
2022-12-12T21:36:18.815Z,2.25
2022-12-12T21:38:45.199Z,1.75
2022-12-12T21:41:13.321Z,4.32
2022-12-12T21:43:39.965Z,7.50
2022-12-12T21:46:07.192Z,4.95
2022-12-12T21:48:33.646Z,4.97
2022-12-12T21:51:03.894Z,5.43
2022-12-12T21:53:36.389Z,5.88
2022-12-12T21:56:13.232Z,4.95
2022-12-12T21:58:40.302Z,3.75
2022-12-12T22:01:07.825Z,5.05
2022-12-12T22:03:34.668Z,4.32
2022-12-12T22:06:01.411Z,3.38
2022-12-12T22:08:27.957Z,3.13
2022-12-12T22:10:54.639Z,3.63
2022-12-12T22:13:21.014Z,5.18
2022-12-12T22:15:55.872Z,4.72
2022-12-12T22:18:22.281Z,3.60
2022-12-12T22:20:49.976Z,3.28
2022-12-12T22:23:17.227Z,2.67
2022-12-12T22:25:43.641Z,2.58
2022-12-12T22:28:10.195Z,2.70
2022-12-12T22:30:36.656Z,3.15
2022-12-12T22:33:03.004Z,4.10
2022-12-12T22:35:29.316Z,6.40
2022-12-12T22:37:55.663Z,9.73
2022-12-12T22:40:21.997Z,10.25
2022-12-12T22:42:49.567Z,8.43
2022-12-12T22:45:16.321Z,10.00
2022-12-12T22:47:42.865Z,11.40
2022-12-12T22:50:09.441Z,8.30
2022-12-12T22:52:35.844Z,11.35
2022-12-12T22:55:02.199Z,10.02
2022-12-12T22:57:28.837Z,8.10
2022-12-12T22:59:55.272Z,9.88
2022-12-12T23:02:24.941Z,10.65
2022-12-12T23:04:53.110Z,6.85
2022-12-12T23:07:19.597Z,11.20
2022-12-12T23:09:52.509Z,13.23
2022-12-12T23:12:19.765Z,15.90
2022-12-12T23:14:46.165Z,14.25
2022-12-12T23:17:12.612Z,13.20
2022-12-12T23:19:38.985Z,11.18
2022-12-12T23:22:05.468Z,10.70
2022-12-12T23:24:32.252Z,8.02
2022-12-12T23:26:58.626Z,8.95
2022-12-12T23:29:25.065Z,8.80
2022-12-12T23:31:51.482Z,12.30
2022-12-12T23:34:20.824Z,7.57
2022-12-12T23:36:47.789Z,10.93
2022-12-12T23:39:14.338Z,9.55
2022-12-12T23:41:41.141Z,8.50
2022-12-12T23:44:08.088Z,9.63
2022-12-12T23:46:36.260Z,9.98
2022-12-12T23:49:08.758Z,12.35
2022-12-12T23:51:39.617Z,11.45
2022-12-12T23:54:07.116Z,13.95
2022-12-12T23:56:33.851Z,12.38
2022-12-12T23:59:00.225Z,9.27
